Time;durP1;ratioP1;P1;durP2;ratioP2;P2;SDS_P1;SDS_P2;PMS_P1;PMS_P2;Temp;Humidity;BMP_temperature;BMP_pressure;BME280_temperature;BME280_humidity;BME280_pressure;Samples;Min_cycle;Max_cycle;Signal;HPM_P1;HPM_P2
2023/10/18 00:01:20;;;;;;;29.10;16.10;;;;;;;-141.97;100.00;47584.44;5032993;28;20202;-81
2023/10/18 00:03:46;;;;;;;27.07;15.83;;;;;;;-141.97;100.00;47711.28;5033716;28;20197;-81
2023/10/18 00:06:12;;;;;;;29.53;15.83;;;;;;;-141.97;100.00;47603.66;5033781;28;20573;-81
2023/10/18 00:08:40;;;;;;;28.73;16.27;;;;;;;-141.97;100.00;47615.19;5034384;28;20216;-81
2023/10/18 00:11:06;;;;;;;26.77;15.67;;;;;;;-141.97;100.00;47676.69;5034723;28;20166;-81
2023/10/18 00:13:33;;;;;;;26.47;16.00;;;;;;;-141.97;100.00;47576.75;5034029;28;20635;-81
2023/10/18 00:16:05;;;;;;;28.67;15.83;;;;;;;-141.97;100.00;47622.88;5027688;28;20177;-81
2023/10/18 00:18:32;;;;;;;28.20;15.87;;;;;;;-141.97;100.00;47605.56;5015995;28;20323;-81
2023/10/18 00:21:02;;;;;;;28.27;16.53;;;;;;;-141.97;100.00;47609.41;5033455;28;20196;-81
2023/10/18 00:23:30;;;;;;;30.00;17.17;;;;;;;-141.97;100.00;47594.03;5033602;28;20205;-81
2023/10/18 00:25:56;;;;;;;29.57;16.10;;;;;;;-141.97;100.00;47638.25;5025435;28;20300;-81
2023/10/18 00:28:22;;;;;;;28.23;16.53;;;;;;;-141.97;100.00;47584.44;5033154;28;20629;-82
2023/10/18 00:30:52;;;;;;;31.53;16.23;;;;;;;-141.97;100.00;47613.25;5033499;28;20206;-82
2023/10/18 00:33:18;;;;;;;27.97;15.77;;;;;;;-141.97;100.00;47609.41;5033750;28;20678;-82
2023/10/18 00:35:47;;;;;;;30.00;16.53;;;;;;;-141.97;100.00;47605.56;5033283;28;20166;-82
2023/10/18 00:38:16;;;;;;;26.63;15.37;;;;;;;-141.97;100.00;47590.19;5032853;28;20232;-81
2023/10/18 00:40:45;;;;;;;25.43;15.13;;;;;;;-141.97;100.00;47615.19;5015716;28;20221;-82
2023/10/18 00:43:22;;;;;;;26.57;14.87;;;;;;;-141.97;100.00;47611.34;5033344;28;20666;-82
2023/10/18 00:45:52;;;;;;;28.93;15.67;;;;;;;-141.97;100.00;47619.03;5033044;28;20166;-82
2023/10/18 00:48:20;;;;;;;27.23;14.80;;;;;;;-141.97;100.00;47620.94;5032698;28;20236;-82
2023/10/18 00:50:48;;;;;;;26.37;14.83;;;;;;;-141.97;100.00;47609.41;5033285;28;20195;-82
2023/10/18 00:53:30;;;;;;;29.63;15.63;;;;;;;-141.97;100.00;47584.44;5032714;28;20170;-82
2023/10/18 00:55:57;;;;;;;28.80;16.17;;;;;;;-141.97;100.00;47655.53;5033242;28;20177;-82
2023/10/18 00:58:33;;;;;;;28.33;16.17;;;;;;;-141.97;100.00;47578.66;5014974;28;20699;-81
2023/10/18 01:01:09;;;;;;;26.13;15.13;;;;;;;-141.97;100.00;47586.34;5032947;28;20595;-81
2023/10/18 01:03:38;;;;;;;27.93;15.40;;;;;;;-141.97;100.00;47542.16;5033124;28;20220;-81
2023/10/18 01:06:17;;;;;;;28.83;15.27;;;;;;;-141.97;100.00;47642.09;5032843;28;20630;-82
2023/10/18 01:08:47;;;;;;;26.57;15.23;;;;;;;-141.97;100.00;47626.72;5014103;28;20256;-83
2023/10/18 01:11:14;;;;;;;25.27;15.60;;;;;;;-141.97;100.00;47553.69;5033002;28;20159;-83
2023/10/18 01:13:43;;;;;;;26.90;16.00;;;;;;;-141.97;100.00;47620.94;5032027;28;20551;-83
2023/10/18 01:16:21;;;;;;;25.70;15.23;;;;;;;-141.97;100.00;47711.28;5023258;28;20198;-83
2023/10/18 01:18:48;;;;;;;29.00;15.27;;;;;;;-141.97;100.00;47557.53;5014195;28;20506;-83
2023/10/18 01:21:19;;;;;;;27.80;15.33;;;;;;;-141.97;100.00;47630.56;5034279;28;20158;-83
2023/10/18 01:23:49;;;;;;;24.20;14.87;;;;;;;-141.97;100.00;47636.31;5032471;28;20228;-83
2023/10/18 01:26:15;;;;;;;31.93;16.07;;;;;;;-141.97;100.00;47628.63;5004816;28;20245;-86
2023/10/18 01:28:41;;;;;;;28.07;15.73;;;;;;;-141.97;100.00;47595.97;5032616;28;20178;-85
2023/10/18 01:31:07;;;;;;;29.03;16.00;;;;;;;-141.97;100.00;47653.63;5032604;28;20180;-85
2023/10/18 01:33:32;;;;;;;27.77;16.50;;;;;;;-141.97;100.00;47546.00;5032742;28;20181;-85
2023/10/18 01:35:58;;;;;;;28.30;15.80;;;;;;;-141.97;100.00;47563.28;5032938;28;20299;-86
2023/10/18 01:38:29;;;;;;;32.50;17.77;;;;;;;-141.97;100.00;47603.66;5032078;28;20178;-85
2023/10/18 01:40:57;;;;;;;28.73;16.87;;;;;;;-141.97;100.00;47603.66;5031671;28;20225;-86
2023/10/18 01:43:27;;;;;;;30.03;16.87;;;;;;;-141.97;100.00;47584.44;5013995;28;20673;-83
2023/10/18 01:45:54;;;;;;;41.33;17.23;;;;;;;-141.97;100.00;47669.00;5014666;28;20173;-83
2023/10/18 01:48:19;;;;;;;30.17;16.87;;;;;;;-141.97;100.00;47559.44;5027300;28;20268;-83
2023/10/18 01:50:47;;;;;;;31.47;16.97;;;;;;;-141.97;100.00;47603.66;5042283;28;20233;-83
2023/10/18 01:53:15;;;;;;;32.53;17.80;;;;;;;-141.97;100.00;47615.19;5063720;28;20180;-83
2023/10/18 01:55:45;;;;;;;36.33;18.33;;;;;;;-141.97;100.00;47619.03;5064445;28;20251;-83
2023/10/18 01:58:10;;;;;;;32.80;18.27;;;;;;;-141.97;100.00;47659.38;5052786;28;20642;-82
2023/10/18 02:00:41;;;;;;;32.20;18.13;;;;;;;-141.97;100.00;47595.97;5032885;28;20185;-83
2023/10/18 02:03:08;;;;;;;33.57;18.57;;;;;;;-141.97;100.00;47628.63;5033629;28;20194;-85
2023/10/18 02:05:38;;;;;;;31.50;18.03;;;;;;;-141.97;100.00;47559.44;5033232;28;20173;-85
2023/10/18 02:08:05;;;;;;;31.43;18.27;;;;;;;-141.97;100.00;47688.22;5013901;28;20176;-85
2023/10/18 02:10:32;;;;;;;31.00;18.27;;;;;;;-141.97;100.00;47676.69;5014783;28;20182;-85
2023/10/18 02:12:57;;;;;;;32.83;18.67;;;;;;;-141.97;100.00;47724.75;5014026;28;20253;-81
2023/10/18 02:15:24;;;;;;;31.03;17.80;;;;;;;-141.97;100.00;47622.88;5030242;28;20190;-81
2023/10/18 02:17:56;;;;;;;31.57;17.77;;;;;;;-141.97;100.00;47626.72;5033186;28;20269;-81
2023/10/18 02:20:28;;;;;;;31.37;18.07;;;;;;;-141.97;100.00;47484.47;5047407;28;20241;-82
2023/10/18 02:23:01;;;;;;;33.70;18.70;;;;;;;-141.97;100.00;47630.56;5049244;28;20210;-82
2023/10/18 02:25:46;;;;;;;35.57;18.53;;;;;;;-141.97;100.00;47626.72;5019731;28;20170;-82
2023/10/18 02:28:22;;;;;;;29.90;17.50;;;;;;;-141.97;100.00;47617.09;5022982;28;20185;-81
2023/10/18 02:30:56;;;;;;;31.03;17.70;;;;;;;-141.97;100.00;47678.63;5046393;28;20178;-81
2023/10/18 02:33:36;;;;;;;29.73;17.40;;;;;;;-141.97;100.00;47609.41;5031340;28;20177;-80
2023/10/18 02:36:05;;;;;;;38.00;17.43;;;;;;;-141.97;100.00;47624.78;5011747;28;20799;-82
2023/10/18 02:38:32;;;;;;;31.20;18.20;;;;;;;-141.97;100.00;47645.94;5030418;28;20594;-81
2023/10/18 02:40:57;;;;;;;32.43;17.97;;;;;;;-141.97;100.00;47597.88;5029235;28;20621;-81
2023/10/18 02:43:23;;;;;;;32.77;18.97;;;;;;;-141.97;100.00;47619.03;5030841;28;20193;-81
2023/10/18 02:45:51;;;;;;;39.53;21.00;;;;;;;-141.97;100.00;47580.59;5031027;28;20618;-81
2023/10/18 02:48:22;;;;;;;34.80;20.47;;;;;;;-141.97;100.00;47601.72;5031032;28;20170;-82
2023/10/18 02:50:49;;;;;;;35.80;20.93;;;;;;;-141.97;100.00;47615.19;4996943;28;20252;-82
2023/10/18 02:53:17;;;;;;;35.00;19.20;;;;;;;-141.97;100.00;47626.72;5029438;28;20215;-82
2023/10/18 02:55:50;;;;;;;32.67;19.63;;;;;;;-141.97;100.00;47630.56;5028823;28;20225;-82
2023/10/18 02:58:15;;;;;;;35.17;19.63;;;;;;;-141.97;100.00;47584.44;5029317;28;20627;-83
2023/10/18 03:00:41;;;;;;;35.67;20.37;;;;;;;-141.97;100.00;47634.41;5034510;28;20209;-83
2023/10/18 03:03:07;;;;;;;34.67;19.20;;;;;;;-141.97;100.00;47544.06;5031177;28;20194;-84
2023/10/18 03:05:40;;;;;;;37.93;19.70;;;;;;;-141.97;100.00;47603.66;5031290;28;20533;-85
2023/10/18 03:08:08;;;;;;;38.30;20.90;;;;;;;-141.97;100.00;47642.09;5030857;28;20167;-84
2023/10/18 03:10:44;;;;;;;37.47;20.97;;;;;;;-141.97;100.00;47488.31;5031372;28;20166;-84
2023/10/18 03:13:13;;;;;;;38.07;21.07;;;;;;;-141.97;100.00;47630.56;5030998;28;20204;-85
2023/10/18 03:15:52;;;;;;;38.67;21.27;;;;;;;-141.97;100.00;47519.06;5023668;28;20609;-84
2023/10/18 03:18:24;;;;;;;42.43;22.90;;;;;;;-141.97;100.00;47684.38;5011309;28;20171;-85
2023/10/18 03:20:55;;;;;;;40.90;22.20;;;;;;;-141.97;100.00;47622.88;5011445;28;20167;-84
2023/10/18 03:23:22;;;;;;;40.97;22.63;;;;;;;-141.97;100.00;47586.34;4993338;28;20586;-85
2023/10/18 03:25:58;;;;;;;43.10;23.53;;;;;;;-141.97;100.00;47724.75;5024068;28;20189;-85
2023/10/18 03:28:25;;;;;;;45.83;23.90;;;;;;;-141.97;100.00;47667.06;5013218;28;20264;-85
2023/10/18 03:30:50;;;;;;;43.50;24.90;;;;;;;-141.97;100.00;47557.53;5039624;28;20638;-84
2023/10/18 03:33:16;;;;;;;47.77;23.90;;;;;;;-141.97;100.00;47620.94;5024912;28;20231;-85
2023/10/18 03:35:43;;;;;;;42.93;23.93;;;;;;;-141.97;100.00;47569.06;5018359;28;20182;-84
2023/10/18 03:38:30;;;;;;;44.97;23.83;;;;;;;-141.97;100.00;47586.34;5036819;28;20204;-85
2023/10/18 03:40:58;;;;;;;45.90;23.40;;;;;;;-141.97;100.00;47619.03;5016860;28;20219;-85
2023/10/18 03:43:26;;;;;;;43.93;23.97;;;;;;;-141.97;100.00;47651.69;4997337;28;20264;-85
2023/10/18 03:46:09;;;;;;;46.43;24.00;;;;;;;-141.97;100.00;47607.50;5020541;28;20201;-85
2023/10/18 03:48:44;;;;;;;44.43;24.13;;;;;;;-141.97;100.00;47640.16;5016640;28;20185;-85
2023/10/18 03:51:17;;;;;;;43.20;23.80;;;;;;;-141.97;100.00;47622.88;5014773;28;20186;-85
2023/10/18 03:53:43;;;;;;;49.97;26.10;;;;;;;-141.97;100.00;47603.66;5004366;28;20600;-86
2023/10/18 03:56:09;;;;;;;48.57;25.63;;;;;;;-141.97;100.00;47734.34;5013586;28;20196;-85
2023/10/18 03:58:36;;;;;;;48.93;25.53;;;;;;;-141.97;100.00;47603.66;5034576;28;20168;-84
2023/10/18 04:01:01;;;;;;;49.47;27.37;;;;;;;-141.97;100.00;47572.91;5043156;28;20173;-80
2023/10/18 04:03:29;;;;;;;47.83;25.37;;;;;;;-141.97;100.00;47597.88;5035755;28;20212;-80
2023/10/18 04:06:03;;;;;;;47.73;24.30;;;;;;;-141.97;100.00;47634.41;5030248;28;20181;-80
2023/10/18 04:08:29;;;;;;;47.37;25.90;;;;;;;-141.97;100.00;47661.31;5033482;28;20166;-80
2023/10/18 04:10:58;;;;;;;56.10;28.90;;;;;;;-141.97;100.00;47680.53;5033160;28;20689;-80
2023/10/18 04:13:35;;;;;;;60.17;32.03;;;;;;;-141.97;100.00;47772.78;5034691;28;20784;-81
2023/10/18 04:16:09;;;;;;;74.60;36.37;;;;;;;-141.97;100.00;47697.84;5033486;28;20178;-81
2023/10/18 04:18:35;;;;;;;58.87;31.33;;;;;;;-141.97;100.00;47580.59;5037982;28;20181;-81
2023/10/18 04:21:05;;;;;;;50.87;27.93;;;;;;;-141.97;100.00;47634.41;5036630;28;20182;-81
2023/10/18 04:23:31;;;;;;;50.13;25.57;;;;;;;-141.97;100.00;47726.66;5033936;28;20303;-81
2023/10/18 04:26:10;;;;;;;47.80;26.57;;;;;;;-141.97;100.00;47647.84;5033980;28;20162;-80
2023/10/18 04:28:39;;;;;;;45.57;24.80;;;;;;;-141.97;100.00;47626.72;5033483;28;20546;-82
2023/10/18 04:31:08;;;;;;;49.17;27.73;;;;;;;-141.97;100.00;47546.00;5007775;28;20190;-87
2023/10/18 04:33:35;;;;;;;58.00;28.83;;;;;;;-141.97;100.00;47644.00;5016670;28;20192;-84
2023/10/18 04:36:15;;;;;;;59.33;30.90;;;;;;;-141.97;100.00;47644.00;5035210;28;20196;-84
2023/10/18 04:38:43;;;;;;;65.90;38.33;;;;;;;-141.97;100.00;47622.88;5054259;28;20618;-85
2023/10/18 04:41:10;;;;;;;61.00;35.07;;;;;;;-141.97;100.00;47622.88;5054700;28;20224;-84
2023/10/18 04:43:37;;;;;;;58.20;33.63;;;;;;;-141.97;100.00;47632.47;5034949;28;20198;-83
2023/10/18 04:54:17;;;;;;;51.17;29.53;;;;;;;-141.97;100.00;47665.16;4987567;28;20199;-84
2023/10/18 04:56:47;;;;;;;99.10;52.20;;;;;;;-141.97;100.00;47642.09;4973754;28;20271;-85
2023/10/18 05:04:34;;;;;;;47.67;26.70;;;;;;;-141.97;100.00;47720.91;5002693;28;20187;-84
2023/10/18 05:09:41;;;;;;;42.20;23.50;;;;;;;-141.97;100.00;47597.88;4993638;28;20167;-84
2023/10/18 05:14:44;;;;;;;49.10;24.00;;;;;;;-141.97;100.00;47622.88;4992289;28;20251;-83
2023/10/18 05:17:17;;;;;;;44.83;24.63;;;;;;;-141.97;100.00;47628.63;4994708;28;20194;-84
2023/10/18 05:19:44;;;;;;;53.53;29.23;;;;;;;-141.97;100.00;47649.78;4989658;28;20176;-85
2023/10/18 05:22:16;;;;;;;48.27;25.50;;;;;;;-141.97;100.00;47653.63;4986683;28;20258;-85
2023/10/18 05:24:42;;;;;;;45.10;25.87;;;;;;;-141.97;100.00;47669.00;4997397;28;20184;-86
2023/10/18 05:27:19;;;;;;;54.20;26.50;;;;;;;-141.97;100.00;47557.53;4994920;28;20191;-85
2023/10/18 05:29:52;;;;;;;49.60;26.57;;;;;;;-141.97;100.00;47642.09;4989809;28;21538;-85
2023/10/18 05:35:03;;;;;;;54.10;30.27;;;;;;;-141.97;100.00;47672.84;5035672;28;20599;-84
2023/10/18 05:37:33;;;;;;;47.40;26.67;;;;;;;-141.97;100.00;47649.78;5017291;28;20178;-84
2023/10/18 05:42:48;;;;;;;130.20;49.67;;;;;;;-141.97;100.00;47622.88;4984821;28;20215;-84
2023/10/18 05:45:13;;;;;;;56.70;28.60;;;;;;;-141.97;100.00;47632.47;4992791;28;20191;-84
2023/10/18 05:47:42;;;;;;;60.37;30.30;;;;;;;-141.97;100.00;47536.38;4992032;28;20675;-84
2023/10/18 05:50:12;;;;;;;42.53;23.10;;;;;;;-141.97;100.00;47526.75;4987780;28;20172;-84
2023/10/18 05:52:38;;;;;;;40.70;23.07;;;;;;;-141.97;100.00;47634.41;4973649;28;20286;-84
2023/10/18 05:55:10;;;;;;;45.17;25.57;;;;;;;-141.97;100.00;47672.84;4973034;28;20664;-85
2023/10/18 05:57:37;;;;;;;54.97;28.47;;;;;;;-141.97;100.00;47628.63;4957694;28;20184;-85
2023/10/18 06:00:17;;;;;;;62.27;32.43;;;;;;;-141.97;100.00;47655.53;4973140;28;20184;-85
2023/10/18 06:02:42;;;;;;;53.03;28.30;;;;;;;-141.97;100.00;47649.78;4994207;28;20211;-83
2023/10/18 06:05:09;;;;;;;58.83;32.30;;;;;;;-141.97;100.00;47592.13;5016551;28;20263;-84
2023/10/18 06:07:35;;;;;;;44.80;25.37;;;;;;;-141.97;100.00;47688.22;4988456;28;20199;-84
2023/10/18 06:10:09;;;;;;;45.60;24.23;;;;;;;-141.97;100.00;47653.63;5000084;28;20576;-84
2023/10/18 06:12:40;;;;;;;59.87;31.40;;;;;;;-141.97;100.00;47630.56;4992335;28;20199;-82
2023/10/18 06:15:12;;;;;;;66.53;35.10;;;;;;;-141.97;100.00;47494.09;4974138;28;20707;-83
2023/10/18 06:17:46;;;;;;;53.83;29.00;;;;;;;-141.97;100.00;47519.06;4972114;28;20176;-84
2023/10/18 06:20:27;;;;;;;191.43;108.37;;;;;;;-141.97;100.00;47705.53;4981496;28;20194;-88
2023/10/18 06:23:08;;;;;;;198.53;101.97;;;;;;;-141.97;100.00;47636.31;5021778;28;20208;-82
2023/10/18 06:25:49;;;;;;;138.53;70.37;;;;;;;-141.97;100.00;47497.94;5031685;28;20155;-83
2023/10/18 06:28:20;;;;;;;68.77;40.47;;;;;;;-141.97;100.00;47499.84;5032087;28;20521;-83
2023/10/18 06:30:51;;;;;;;45.93;27.73;;;;;;;-141.97;100.00;47634.41;5004693;28;20244;-84
2023/10/18 06:33:19;;;;;;;45.07;26.47;;;;;;;-141.97;100.00;47730.50;5018465;28;20166;-81
2023/10/18 06:35:53;;;;;;;44.40;25.70;;;;;;;-141.97;100.00;47776.63;5033302;28;20186;-83
2023/10/18 06:38:23;;;;;;;65.80;35.30;;;;;;;-141.97;100.00;47649.78;5032440;28;20241;-83
2023/10/18 06:43:25;;;;;;;88.33;48.20;;;;;;;-141.97;100.00;47653.63;5031707;28;20205;-82
2023/10/18 06:45:53;;;;;;;59.73;31.93;;;;;;;-141.97;100.00;47624.78;5032320;28;20162;-85
2023/10/18 06:48:19;;;;;;;54.83;30.57;;;;;;;-141.97;100.00;47657.47;5033160;28;20688;-83
2023/10/18 06:50:46;;;;;;;41.13;24.53;;;;;;;-141.97;100.00;47586.34;5034401;28;20174;-82
2023/10/18 06:53:15;;;;;;;38.17;21.13;;;;;;;-141.97;100.00;47521.00;5013978;28;20647;-84
2023/10/18 06:55:44;;;;;;;37.23;20.10;;;;;;;-141.97;100.00;47695.91;5030428;28;20232;-81
2023/10/18 06:58:13;;;;;;;32.00;19.70;;;;;;;-141.97;100.00;47653.63;5031715;28;20158;-82
2023/10/18 07:00:43;;;;;;;36.30;22.73;;;;;;;-141.97;100.00;47611.34;5033442;28;20166;-83
2023/10/18 07:03:16;;;;;;;29.10;18.00;;;;;;;-141.97;100.00;47669.00;5031008;28;20201;-83
2023/10/18 07:05:43;;;;;;;25.40;15.30;;;;;;;-141.97;100.00;47718.97;5031460;28;20165;-83
2023/10/18 07:08:18;;;;;;;25.57;15.07;;;;;;;-141.97;100.00;47670.91;5038857;28;20198;-83
2023/10/18 07:10:54;;;;;;;24.93;16.33;;;;;;;-141.97;100.00;47669.00;5042828;28;20142;-83
2023/10/18 07:13:32;;;;;;;19.83;13.77;;;;;;;-141.97;100.00;47632.47;5046899;28;20208;-84
2023/10/18 07:16:01;;;;;;;22.13;14.70;;;;;;;-141.97;100.00;47636.31;5052196;28;20262;-83
2023/10/18 07:18:27;;;;;;;20.20;13.43;;;;;;;-141.97;100.00;47795.88;5065114;28;20211;-83
2023/10/18 07:21:06;;;;;;;21.60;14.17;;;;;;;-141.97;100.00;47624.78;5034783;28;20186;-85
2023/10/18 07:23:38;;;;;;;25.57;16.63;;;;;;;-141.97;100.00;47611.34;5018561;28;20279;-84
2023/10/18 07:26:07;;;;;;;25.30;14.93;;;;;;;-141.97;100.00;47736.28;5030281;28;20185;-84
2023/10/18 07:28:35;;;;;;;24.10;15.67;;;;;;;-141.97;100.00;47588.28;5031511;28;20227;-83
2023/10/18 07:31:08;;;;;;;26.87;16.40;;;;;;;-141.97;100.00;47740.13;5005052;28;20229;-83
2023/10/18 07:33:36;;;;;;;29.70;17.37;;;;;;;-141.97;100.00;47692.06;5042559;28;20205;-84
2023/10/18 07:36:02;;;;;;;21.80;13.47;;;;;;;-141.97;100.00;47644.00;5035170;28;20170;-84
2023/10/18 07:38:27;;;;;;;20.37;13.47;;;;;;;-141.97;100.00;47607.50;5044142;28;20178;-85
2023/10/18 07:40:57;;;;;;;19.47;11.60;;;;;;;-141.97;100.00;47655.53;5016846;28;20705;-84
2023/10/18 07:43:25;;;;;;;25.63;17.63;;;;;;;-141.97;100.00;47703.59;5015378;28;20636;-85
2023/10/18 07:45:54;;;;;;;32.57;20.57;;;;;;;-141.97;100.00;47638.25;5032339;28;20249;-85
2023/10/18 07:48:27;;;;;;;27.40;16.07;;;;;;;-141.97;100.00;47595.97;5032736;28;20209;-85
2023/10/18 07:51:32;;;;;;;21.27;13.47;;;;;;;-141.97;100.00;47561.38;5016787;28;20178;-84
2023/10/18 07:53:59;;;;;;;22.73;12.90;;;;;;;-141.97;100.00;47572.91;5017540;28;20170;-83
2023/10/18 07:56:29;;;;;;;25.67;14.53;;;;;;;-141.97;100.00;47603.66;5016987;28;20779;-83
2023/10/18 07:59:26;;;;;;;23.70;14.03;;;;;;;-141.97;100.00;47747.81;5014863;28;20196;-83
2023/10/18 08:04:37;;;;;;;20.10;13.70;;;;;;;-141.97;100.00;47680.53;4951688;29;20184;-83
2023/10/18 08:07:04;;;;;;;22.10;13.37;;;;;;;-141.97;100.00;47624.78;4950371;29;20181;-83
2023/10/18 08:09:29;;;;;;;21.30;12.73;;;;;;;-141.97;100.00;47711.28;4950341;28;20193;-83
2023/10/18 08:12:08;;;;;;;18.43;11.97;;;;;;;-141.97;100.00;47636.31;4949335;28;20189;-84
2023/10/18 08:14:33;;;;;;;17.67;11.87;;;;;;;-141.97;100.00;47632.47;4950469;29;20709;-83
2023/10/18 08:17:08;;;;;;;20.17;12.80;;;;;;;-141.97;100.00;47728.59;4948297;29;20219;-82
2023/10/18 08:19:44;;;;;;;21.27;12.87;;;;;;;-141.97;100.00;47676.69;4949252;28;20656;-83
2023/10/18 08:22:22;;;;;;;20.30;12.67;;;;;;;-141.97;100.00;47546.00;4950724;28;20192;-82
2023/10/18 08:24:50;;;;;;;22.40;15.03;;;;;;;-141.97;100.00;47632.47;4953438;29;20672;-81
2023/10/18 08:27:17;;;;;;;25.03;15.27;;;;;;;-141.97;100.00;47615.19;4953660;29;20263;-82
2023/10/18 08:29:42;;;;;;;22.83;14.37;;;;;;;-141.97;100.00;47570.97;4954072;29;20195;-83
2023/10/18 08:32:17;;;;;;;24.17;15.40;;;;;;;-141.97;100.00;47626.72;4944017;28;20247;-83
2023/10/18 08:34:44;;;;;;;21.30;14.53;;;;;;;-141.97;100.00;47599.81;4953179;29;20195;-82
2023/10/18 08:37:16;;;;;;;28.70;15.50;;;;;;;-141.97;100.00;47630.56;4952442;29;20296;-83
2023/10/18 08:39:52;;;;;;;26.20;16.53;;;;;;;-141.97;100.00;47538.28;4936374;29;20180;-83
2023/10/18 08:42:22;;;;;;;23.83;16.60;;;;;;;-141.97;100.00;47546.00;5008130;28;20222;-83
2023/10/18 08:44:55;;;;;;;26.03;17.17;;;;;;;-141.97;100.00;47505.63;5032847;28;20580;-84
2023/10/18 08:47:30;;;;;;;27.13;16.03;;;;;;;-141.97;100.00;47553.69;5033157;28;20258;-84
2023/10/18 08:49:56;;;;;;;26.47;16.47;;;;;;;-141.97;100.00;47551.75;5034074;28;20205;-82
2023/10/18 08:52:32;;;;;;;24.10;16.70;;;;;;;-141.97;100.00;47559.44;5034239;28;20176;-85
2023/10/18 08:57:46;;;;;;;25.00;17.40;;;;;;;-141.97;100.00;47651.69;5042778;28;20271;-83
2023/10/18 09:02:53;;;;;;;25.80;16.83;;;;;;;-141.97;100.00;47576.75;5040471;28;20673;-83
2023/10/18 09:05:25;;;;;;;25.60;16.67;;;;;;;-141.97;100.00;47624.78;5043294;28;20170;-83
2023/10/18 09:08:00;;;;;;;30.43;18.03;;;;;;;-141.97;100.00;47599.81;5024828;28;20649;-82
2023/10/18 09:18:24;;;;;;;34.00;18.67;;;;;;;-141.97;100.00;47699.75;5039727;28;20182;-82
2023/10/18 09:20:51;;;;;;;28.23;17.97;;;;;;;-141.97;100.00;47632.47;5018930;28;20611;-83
2023/10/18 09:23:20;;;;;;;28.77;18.83;;;;;;;-141.97;100.00;47611.34;5032375;28;20697;-84
2023/10/18 09:25:49;;;;;;;28.97;18.43;;;;;;;-141.97;100.00;47626.72;5032643;28;20253;-84
2023/10/18 09:28:25;;;;;;;33.30;18.47;;;;;;;-141.97;100.00;47609.41;5033187;28;20186;-84
2023/10/18 09:31:00;;;;;;;32.70;20.97;;;;;;;-141.97;98.31;47609.41;5016206;28;20241;-84
2023/10/18 09:33:27;;;;;;;37.13;24.07;;;;;;;-141.97;98.05;47599.81;5032113;28;20226;-83
2023/10/18 09:36:01;;;;;;;36.10;22.70;;;;;;;-141.97;97.85;47634.41;5014536;28;20657;-84
2023/10/18 09:38:39;;;;;;;34.60;21.97;;;;;;;-141.97;96.58;47665.16;5014476;28;20224;-83
2023/10/18 09:41:07;;;;;;;33.70;22.27;;;;;;;-141.97;96.84;47753.56;5010756;28;20223;-84
2023/10/18 09:43:36;;;;;;;37.87;21.77;;;;;;;-141.97;97.30;47763.19;5001275;28;20205;-83
2023/10/18 09:46:03;;;;;;;35.27;22.80;;;;;;;-141.97;96.14;47632.47;5011407;28;20198;-83
2023/10/18 09:48:38;;;;;;;33.80;22.17;;;;;;;-141.97;96.22;47586.34;5016765;28;20272;-83
2023/10/18 09:51:09;;;;;;;33.23;22.37;;;;;;;-141.97;94.80;47695.91;5029124;28;20177;-84
2023/10/18 09:53:37;;;;;;;29.77;20.07;;;;;;;-141.97;93.18;47622.88;5024864;28;20186;-83
2023/10/18 09:56:04;;;;;;;28.83;19.23;;;;;;;-141.97;93.64;47620.94;5011911;28;20170;-84
2023/10/18 09:58:33;;;;;;;28.93;19.57;;;;;;;-141.97;93.83;47499.84;5010350;28;20201;-84
2023/10/18 10:01:13;;;;;;;29.20;20.50;;;;;;;-141.97;93.17;47626.72;5014217;28;20188;-83
2023/10/18 10:03:50;;;;;;;33.93;21.97;;;;;;;-141.97;94.18;47572.91;5030436;28;20274;-84
2023/10/18 10:06:23;;;;;;;33.80;20.57;;;;;;;-141.97;91.32;47476.78;5035013;28;20236;-84
2023/10/18 10:08:55;;;;;;;28.90;19.30;;;;;;;-141.97;90.68;47615.19;5027830;28;20198;-84
2023/10/18 10:11:22;;;;;;;28.57;19.50;;;;;;;-141.97;90.04;47601.72;5019970;28;20201;-83
2023/10/18 10:13:49;;;;;;;29.47;20.47;;;;;;;-141.97;88.65;47430.66;5014668;28;20171;-83
2023/10/18 10:16:20;;;;;;;32.67;21.17;;;;;;;-141.97;88.02;47619.03;5012626;28;20251;-84
2023/10/18 10:18:50;;;;;;;29.57;19.87;;;;;;;-141.97;59.63;47549.84;5011743;28;20175;-84
2023/10/18 10:21:21;;;;;;;26.90;19.07;;;;;;;-141.97;59.28;47574.81;5010219;28;20615;-83
2023/10/18 10:23:51;;;;;;;27.37;18.37;;;;;;;-141.97;58.66;47553.69;5009570;28;20264;-84
2023/10/18 10:26:22;;;;;;;21.90;15.93;;;;;;;-141.97;58.55;47584.44;5010450;28;20178;-84
2023/10/18 10:31:57;;;;;;;23.77;16.80;;;;;;;-141.97;56.99;47611.34;5001776;28;20175;-84
2023/10/18 10:34:34;;;;;;;22.10;16.17;;;;;;;-141.97;57.05;47736.28;5011043;28;20186;-84
2023/10/18 10:37:11;;;;;;;21.13;14.87;;;;;;;-141.97;56.11;47603.66;5009619;28;20696;-84
2023/10/18 10:40:14;;;;;;;23.63;17.47;;;;;;;-141.97;56.42;47761.25;5011497;28;20236;-83
2023/10/18 10:42:46;;;;;;;25.73;18.10;;;;;;;-141.97;57.50;47595.97;5030034;28;20630;-83
2023/10/18 10:48:15;;;;;;;24.63;17.77;;;;;;;-141.97;57.45;47630.56;5030651;28;20177;-83
2023/10/18 10:50:45;;;;;;;23.57;17.13;;;;;;;-141.97;56.42;47609.41;5030869;28;20178;-82
2023/10/18 10:53:11;;;;;;;25.73;16.90;;;;;;;-141.97;56.10;47569.06;5012065;28;20212;-83
2023/10/18 10:55:38;;;;;;;26.57;18.93;;;;;;;-141.97;57.42;47626.72;5030283;28;20158;-83
2023/10/18 10:58:16;;;;;;;25.10;18.20;;;;;;;-141.97;56.43;47747.81;5012950;28;20178;-82
2023/10/18 11:01:31;;;;;;;24.97;18.03;;;;;;;-141.97;56.10;47603.66;5030512;28;20172;-83
2023/10/18 11:03:59;;;;;;;28.60;18.30;;;;;;;-141.97;56.71;47607.50;4952618;28;20215;-83
2023/10/18 11:06:32;;;;;;;24.97;18.30;;;;;;;-141.97;57.26;47609.41;4969779;28;20624;-83
2023/10/18 11:08:58;;;;;;;25.93;18.03;;;;;;;-141.97;57.46;47622.88;4969168;28;20284;-84
2023/10/18 11:11:27;;;;;;;24.47;17.23;;;;;;;-141.97;57.08;47549.84;4985078;28;20201;-83
2023/10/18 11:13:53;;;;;;;24.43;17.00;;;;;;;-141.97;57.92;47626.72;4968277;28;20648;-84
2023/10/18 11:16:53;;;;;;;24.10;17.13;;;;;;;-141.97;58.62;47622.88;4964432;28;20248;-83
2023/10/18 11:19:28;;;;;;;25.90;18.30;;;;;;;-141.97;60.00;47607.50;4889914;29;20194;-84
2023/10/18 11:21:59;;;;;;;24.13;16.73;;;;;;;-141.97;58.47;47463.34;4901790;29;20182;-84
2023/10/18 11:24:25;;;;;;;23.40;15.80;;;;;;;-141.97;57.60;47715.13;4902138;29;20281;-83
2023/10/18 11:26:51;;;;;;;21.37;15.03;;;;;;;-141.97;56.19;47507.53;4895219;29;20246;-84
2023/10/18 11:29:25;;;;;;;21.07;15.60;;;;;;;-141.97;55.83;47607.50;4906230;29;20190;-83
2023/10/18 11:31:55;;;;;;;23.30;16.37;;;;;;;-141.97;55.23;47542.16;4897422;29;20241;-82
2023/10/18 11:34:27;;;;;;;24.13;16.03;;;;;;;-141.97;54.86;47574.81;4902588;29;20597;-84
2023/10/18 11:37:01;;;;;;;18.90;13.40;;;;;;;-141.97;53.59;47761.25;4912013;29;20212;-85
2023/10/18 11:39:32;;;;;;;20.73;14.50;;;;;;;-141.97;53.86;47592.13;4963095;29;20284;-83
2023/10/18 11:41:59;;;;;;;25.23;15.80;;;;;;;-141.97;55.88;47717.06;4941008;29;20199;-82
2023/10/18 11:44:27;;;;;;;20.80;14.07;;;;;;;-141.97;55.75;47617.09;4934299;29;20286;-82
2023/10/18 11:47:00;;;;;;;21.93;15.60;;;;;;;-141.97;55.46;47657.47;4935266;29;20172;-83
2023/10/18 11:49:42;;;;;;;24.07;16.17;;;;;;;-141.97;54.91;47599.81;4982631;28;20182;-82
2023/10/18 11:52:16;;;;;;;23.63;15.90;;;;;;;-141.97;54.82;47630.56;5029866;28;20733;-82
2023/10/18 11:54:43;;;;;;;21.00;15.03;;;;;;;-141.97;54.44;47576.75;5023865;28;20170;-83
2023/10/18 11:57:24;;;;;;;20.30;15.10;;;;;;;-141.97;53.93;47597.88;5032488;28;20158;-82
2023/10/18 11:59:54;;;;;;;21.93;14.93;;;;;;;-141.97;54.58;47557.53;5016036;28;20642;-83